sensor_id;sensor_type;location;lat;lon;timestamp;temperature;humidity
15997;DHT22;8103;51.340;12.326;2022-08-16T00:01:56;20.80;99.90
15997;DHT22;8103;51.340;12.326;2022-08-16T00:04:25;20.80;99.90
15997;DHT22;8103;51.340;12.326;2022-08-16T00:06:52;20.80;99.90
15997;DHT22;8103;51.340;12.326;2022-08-16T00:09:20;20.90;99.90
15997;DHT22;8103;51.340;12.326;2022-08-16T00:11:47;20.80;99.90
15997;DHT22;8103;51.340;12.326;2022-08-16T00:14:22;20.80;99.90
15997;DHT22;8103;51.340;12.326;2022-08-16T00:16:50;20.70;99.90
15997;DHT22;8103;51.340;12.326;2022-08-16T00:19:29;20.60;99.90
15997;DHT22;8103;51.340;12.326;2022-08-16T00:21:57;20.50;99.90
15997;DHT22;8103;51.340;12.326;2022-08-16T00:24:28;20.50;99.90
15997;DHT22;8103;51.340;12.326;2022-08-16T00:26:57;20.40;99.90
15997;DHT22;8103;51.340;12.326;2022-08-16T00:29:23;20.40;99.90
15997;DHT22;8103;51.340;12.326;2022-08-16T00:31:51;20.40;99.90
15997;DHT22;8103;51.340;12.326;2022-08-16T00:34:25;20.40;99.90
15997;DHT22;8103;51.340;12.326;2022-08-16T00:37:07;20.40;99.90
15997;DHT22;8103;51.340;12.326;2022-08-16T00:39:33;20.40;99.90
15997;DHT22;8103;51.340;12.326;2022-08-16T00:42:00;20.40;99.90
15997;DHT22;8103;51.340;12.326;2022-08-16T00:44:27;20.40;99.90
15997;DHT22;8103;51.340;12.326;2022-08-16T00:47:02;20.40;99.90
15997;DHT22;8103;51.340;12.326;2022-08-16T00:49:33;20.50;99.90
15997;DHT22;8103;51.340;12.326;2022-08-16T00:52:05;20.40;99.90
15997;DHT22;8103;51.340;12.326;2022-08-16T00:54:52;20.40;99.90
15997;DHT22;8103;51.340;12.326;2022-08-16T00:57:19;20.30;99.90
15997;DHT22;8103;51.340;12.326;2022-08-16T00:59:46;20.30;99.90
15997;DHT22;8103;51.340;12.326;2022-08-16T01:02:20;20.30;99.90
15997;DHT22;8103;51.340;12.326;2022-08-16T01:04:57;20.30;99.90
15997;DHT22;8103;51.340;12.326;2022-08-16T01:07:36;20.30;99.90
15997;DHT22;8103;51.340;12.326;2022-08-16T01:10:21;20.30;99.90
15997;DHT22;8103;51.340;12.326;2022-08-16T01:12:56;20.30;99.90
15997;DHT22;8103;51.340;12.326;2022-08-16T01:15:26;20.30;99.90
15997;DHT22;8103;51.340;12.326;2022-08-16T01:17:53;20.20;99.90
15997;DHT22;8103;51.340;12.326;2022-08-16T01:20:24;20.20;99.90
15997;DHT22;8103;51.340;12.326;2022-08-16T01:23:02;20.20;99.90
15997;DHT22;8103;51.340;12.326;2022-08-16T01:25:37;20.20;99.90
15997;DHT22;8103;51.340;12.326;2022-08-16T01:28:08;20.20;99.90
15997;DHT22;8103;51.340;12.326;2022-08-16T01:30:40;20.20;99.90
15997;DHT22;8103;51.340;12.326;2022-08-16T01:33:15;20.10;99.90
15997;DHT22;8103;51.340;12.326;2022-08-16T01:35:56;20.10;99.90
15997;DHT22;8103;51.340;12.326;2022-08-16T01:38:33;20.10;99.90
15997;DHT22;8103;51.340;12.326;2022-08-16T01:41:10;20.10;99.90
15997;DHT22;8103;51.340;12.326;2022-08-16T01:43:40;20.10;99.90
15997;DHT22;8103;51.340;12.326;2022-08-16T01:46:31;20.10;99.90
15997;DHT22;8103;51.340;12.326;2022-08-16T01:52:11;20.10;99.90
15997;DHT22;8103;51.340;12.326;2022-08-16T01:54:53;20.10;99.90
15997;DHT22;8103;51.340;12.326;2022-08-16T01:57:20;20.10;99.90
15997;DHT22;8103;51.340;12.326;2022-08-16T01:59:48;20.10;99.90
15997;DHT22;8103;51.340;12.326;2022-08-16T02:02:15;20.00;99.90
15997;DHT22;8103;51.340;12.326;2022-08-16T02:04:47;19.90;99.90
15997;DHT22;8103;51.340;12.326;2022-08-16T02:07:20;19.90;99.90
15997;DHT22;8103;51.340;12.326;2022-08-16T02:09:49;19.80;99.90
15997;DHT22;8103;51.340;12.326;2022-08-16T02:12:23;19.80;99.90
15997;DHT22;8103;51.340;12.326;2022-08-16T02:15:05;19.70;99.90
15997;DHT22;8103;51.340;12.326;2022-08-16T02:17:33;19.70;99.90
15997;DHT22;8103;51.340;12.326;2022-08-16T02:20:00;19.60;99.90
15997;DHT22;8103;51.340;12.326;2022-08-16T02:22:27;19.60;99.90
15997;DHT22;8103;51.340;12.326;2022-08-16T02:25:03;19.60;99.90
15997;DHT22;8103;51.340;12.326;2022-08-16T02:27:32;19.50;99.90
15997;DHT22;8103;51.340;12.326;2022-08-16T02:29:58;19.50;99.90
15997;DHT22;8103;51.340;12.326;2022-08-16T02:32:30;19.50;99.90
15997;DHT22;8103;51.340;12.326;2022-08-16T02:35:15;19.40;99.90
15997;DHT22;8103;51.340;12.326;2022-08-16T02:37:42;19.40;99.90
15997;DHT22;8103;51.340;12.326;2022-08-16T02:40:17;19.40;99.90
15997;DHT22;8103;51.340;12.326;2022-08-16T02:42:46;19.40;99.90
15997;DHT22;8103;51.340;12.326;2022-08-16T02:45:17;19.40;99.90
15997;DHT22;8103;51.340;12.326;2022-08-16T02:47:45;19.30;99.90
15997;DHT22;8103;51.340;12.326;2022-08-16T02:50:28;19.30;99.90
15997;DHT22;8103;51.340;12.326;2022-08-16T02:53:15;19.20;99.90
15997;DHT22;8103;51.340;12.326;2022-08-16T02:55:43;19.20;99.90
15997;DHT22;8103;51.340;12.326;2022-08-16T02:58:10;19.20;99.90
15997;DHT22;8103;51.340;12.326;2022-08-16T03:00:39;19.20;99.90
15997;DHT22;8103;51.340;12.326;2022-08-16T03:03:08;19.20;99.90
15997;DHT22;8103;51.340;12.326;2022-08-16T03:05:36;19.20;99.90
15997;DHT22;8103;51.340;12.326;2022-08-16T03:08:02;19.20;99.90
15997;DHT22;8103;51.340;12.326;2022-08-16T03:10:29;19.20;99.90
15997;DHT22;8103;51.340;12.326;2022-08-16T03:12:57;19.20;99.90
15997;DHT22;8103;51.340;12.326;2022-08-16T03:15:27;19.20;99.90
15997;DHT22;8103;51.340;12.326;2022-08-16T03:17:54;19.20;99.90
15997;DHT22;8103;51.340;12.326;2022-08-16T03:20:22;19.20;99.90
15997;DHT22;8103;51.340;12.326;2022-08-16T03:22:57;19.20;99.90
15997;DHT22;8103;51.340;12.326;2022-08-16T03:25:24;19.20;99.90
15997;DHT22;8103;51.340;12.326;2022-08-16T03:27:52;19.10;99.90
15997;DHT22;8103;51.340;12.326;2022-08-16T03:30:25;19.10;99.90
15997;DHT22;8103;51.340;12.326;2022-08-16T03:32:53;19.10;99.90
15997;DHT22;8103;51.340;12.326;2022-08-16T03:35:27;19.10;99.90
15997;DHT22;8103;51.340;12.326;2022-08-16T03:38:01;19.10;99.90
15997;DHT22;8103;51.340;12.326;2022-08-16T03:40:31;19.10;99.90
15997;DHT22;8103;51.340;12.326;2022-08-16T03:43:00;19.00;99.90
15997;DHT22;8103;51.340;12.326;2022-08-16T03:45:46;19.00;99.90
15997;DHT22;8103;51.340;12.326;2022-08-16T03:48:13;19.00;99.90
15997;DHT22;8103;51.340;12.326;2022-08-16T03:50:43;19.00;99.90
15997;DHT22;8103;51.340;12.326;2022-08-16T03:53:25;18.90;99.90
15997;DHT22;8103;51.340;12.326;2022-08-16T03:55:52;18.90;99.90
15997;DHT22;8103;51.340;12.326;2022-08-16T03:58:19;18.90;99.90
15997;DHT22;8103;51.340;12.326;2022-08-16T04:00:45;18.90;99.90
15997;DHT22;8103;51.340;12.326;2022-08-16T04:03:15;18.80;99.90
15997;DHT22;8103;51.340;12.326;2022-08-16T04:05:46;18.80;99.90
15997;DHT22;8103;51.340;12.326;2022-08-16T04:08:14;18.80;99.90
15997;DHT22;8103;51.340;12.326;2022-08-16T04:10:50;18.80;99.90
15997;DHT22;8103;51.340;12.326;2022-08-16T04:13:18;18.80;99.90
15997;DHT22;8103;51.340;12.326;2022-08-16T04:15:48;18.80;99.90
15997;DHT22;8103;51.340;12.326;2022-08-16T04:18:15;18.80;99.90
15997;DHT22;8103;51.340;12.326;2022-08-16T04:20:43;18.90;99.90
15997;DHT22;8103;51.340;12.326;2022-08-16T04:23:10;18.90;99.90
15997;DHT22;8103;51.340;12.326;2022-08-16T04:25:37;18.90;99.90
15997;DHT22;8103;51.340;12.326;2022-08-16T04:28:04;19.00;99.90
15997;DHT22;8103;51.340;12.326;2022-08-16T04:30:51;19.00;99.90
15997;DHT22;8103;51.340;12.326;2022-08-16T04:33:18;19.10;99.90
15997;DHT22;8103;51.340;12.326;2022-08-16T04:35:54;19.10;99.90
15997;DHT22;8103;51.340;12.326;2022-08-16T04:38:22;19.00;99.90
15997;DHT22;8103;51.340;12.326;2022-08-16T04:40:50;19.00;99.90
15997;DHT22;8103;51.340;12.326;2022-08-16T04:43:20;19.00;99.90
15997;DHT22;8103;51.340;12.326;2022-08-16T04:45:47;19.10;99.90
15997;DHT22;8103;51.340;12.326;2022-08-16T04:48:26;19.10;99.90
15997;DHT22;8103;51.340;12.326;2022-08-16T04:50:54;19.00;99.90
15997;DHT22;8103;51.340;12.326;2022-08-16T04:53:21;19.10;99.90
15997;DHT22;8103;51.340;12.326;2022-08-16T04:55:48;19.10;99.90
15997;DHT22;8103;51.340;12.326;2022-08-16T04:58:19;19.00;99.90
15997;DHT22;8103;51.340;12.326;2022-08-16T05:01:03;19.10;99.90
15997;DHT22;8103;51.340;12.326;2022-08-16T05:03:33;19.10;99.90
15997;DHT22;8103;51.340;12.326;2022-08-16T05:06:00;19.20;99.90
15997;DHT22;8103;51.340;12.326;2022-08-16T05:08:28;19.30;99.90
15997;DHT22;8103;51.340;12.326;2022-08-16T05:11:02;19.30;99.90
15997;DHT22;8103;51.340;12.326;2022-08-16T05:13:31;19.40;99.90
15997;DHT22;8103;51.340;12.326;2022-08-16T05:16:08;19.40;99.90
15997;DHT22;8103;51.340;12.326;2022-08-16T05:18:37;19.50;99.90
15997;DHT22;8103;51.340;12.326;2022-08-16T05:21:04;19.60;99.90
15997;DHT22;8103;51.340;12.326;2022-08-16T05:23:35;19.60;99.90
15997;DHT22;8103;51.340;12.326;2022-08-16T05:26:02;19.70;99.90
15997;DHT22;8103;51.340;12.326;2022-08-16T05:28:29;19.80;99.90
15997;DHT22;8103;51.340;12.326;2022-08-16T05:31:03;19.80;99.90
15997;DHT22;8103;51.340;12.326;2022-08-16T05:33:30;19.80;99.90
15997;DHT22;8103;51.340;12.326;2022-08-16T05:35:57;19.90;99.90
15997;DHT22;8103;51.340;12.326;2022-08-16T05:38:24;19.90;99.90
15997;DHT22;8103;51.340;12.326;2022-08-16T05:40:57;20.00;99.90
15997;DHT22;8103;51.340;12.326;2022-08-16T05:43:26;20.10;99.90
15997;DHT22;8103;51.340;12.326;2022-08-16T05:45:56;20.20;99.90
15997;DHT22;8103;51.340;12.326;2022-08-16T05:48:23;20.20;99.90
15997;DHT22;8103;51.340;12.326;2022-08-16T05:50:52;20.30;99.90
15997;DHT22;8103;51.340;12.326;2022-08-16T05:53:19;20.30;99.90
15997;DHT22;8103;51.340;12.326;2022-08-16T05:55:48;20.40;99.90
15997;DHT22;8103;51.340;12.326;2022-08-16T05:58:14;20.50;99.90
15997;DHT22;8103;51.340;12.326;2022-08-16T06:00:55;20.50;99.90
15997;DHT22;8103;51.340;12.326;2022-08-16T06:03:22;20.60;99.90
15997;DHT22;8103;51.340;12.326;2022-08-16T06:05:49;20.60;99.90
15997;DHT22;8103;51.340;12.326;2022-08-16T06:08:16;20.70;99.90
15997;DHT22;8103;51.340;12.326;2022-08-16T06:10:57;20.70;99.90
15997;DHT22;8103;51.340;12.326;2022-08-16T06:13:28;20.70;99.90
15997;DHT22;8103;51.340;12.326;2022-08-16T06:15:58;20.80;99.90
15997;DHT22;8103;51.340;12.326;2022-08-16T06:18:25;20.90;99.90
15997;DHT22;8103;51.340;12.326;2022-08-16T06:20:52;20.90;99.90
15997;DHT22;8103;51.340;12.326;2022-08-16T06:23:21;21.00;99.90
15997;DHT22;8103;51.340;12.326;2022-08-16T06:25:49;21.10;99.90
15997;DHT22;8103;51.340;12.326;2022-08-16T06:28:18;21.20;99.90
15997;DHT22;8103;51.340;12.326;2022-08-16T06:31:00;21.30;99.90
15997;DHT22;8103;51.340;12.326;2022-08-16T06:33:27;21.40;99.90
15997;DHT22;8103;51.340;12.326;2022-08-16T06:35:54;21.50;99.90
15997;DHT22;8103;51.340;12.326;2022-08-16T06:38:23;21.60;99.90
15997;DHT22;8103;51.340;12.326;2022-08-16T06:41:02;21.70;99.90
15997;DHT22;8103;51.340;12.326;2022-08-16T06:43:30;21.80;99.90
15997;DHT22;8103;51.340;12.326;2022-08-16T06:45:58;21.90;99.90
15997;DHT22;8103;51.340;12.326;2022-08-16T06:48:26;22.00;99.90
15997;DHT22;8103;51.340;12.326;2022-08-16T06:50:58;22.10;99.90
15997;DHT22;8103;51.340;12.326;2022-08-16T06:53:25;22.20;99.90
15997;DHT22;8103;51.340;12.326;2022-08-16T06:55:56;22.30;99.90
15997;DHT22;8103;51.340;12.326;2022-08-16T06:58:24;22.40;99.90
15997;DHT22;8103;51.340;12.326;2022-08-16T07:00:57;22.50;99.60
15997;DHT22;8103;51.340;12.326;2022-08-16T07:03:26;22.60;99.50
15997;DHT22;8103;51.340;12.326;2022-08-16T07:05:58;22.70;99.10
15997;DHT22;8103;51.340;12.326;2022-08-16T07:08:26;22.80;98.80
15997;DHT22;8103;51.340;12.326;2022-08-16T07:10:53;22.80;98.40
15997;DHT22;8103;51.340;12.326;2022-08-16T07:13:20;23.00;98.10
15997;DHT22;8103;51.340;12.326;2022-08-16T07:16:10;23.00;97.80
15997;DHT22;8103;51.340;12.326;2022-08-16T07:18:42;23.20;97.40
15997;DHT22;8103;51.340;12.326;2022-08-16T07:21:25;23.50;96.90
15997;DHT22;8103;51.340;12.326;2022-08-16T07:23:52;23.50;96.20
15997;DHT22;8103;51.340;12.326;2022-08-16T07:26:24;23.70;96.00
15997;DHT22;8103;51.340;12.326;2022-08-16T07:28:51;23.70;95.50
15997;DHT22;8103;51.340;12.326;2022-08-16T07:31:19;23.90;95.10
15997;DHT22;8103;51.340;12.326;2022-08-16T07:33:46;24.00;95.00
15997;DHT22;8103;51.340;12.326;2022-08-16T07:36:18;24.10;94.50
15997;DHT22;8103;51.340;12.326;2022-08-16T07:38:48;24.20;94.00
15997;DHT22;8103;51.340;12.326;2022-08-16T07:41:15;24.40;94.00
15997;DHT22;8103;51.340;12.326;2022-08-16T07:43:43;24.50;93.10
15997;DHT22;8103;51.340;12.326;2022-08-16T07:46:09;24.50;92.80
15997;DHT22;8103;51.340;12.326;2022-08-16T07:48:57;24.60;92.70
15997;DHT22;8103;51.340;12.326;2022-08-16T07:51:28;24.70;92.70
15997;DHT22;8103;51.340;12.326;2022-08-16T07:53:57;24.80;92.50
15997;DHT22;8103;51.340;12.326;2022-08-16T07:56:28;25.00;92.10
15997;DHT22;8103;51.340;12.326;2022-08-16T07:58:59;25.20;91.30
15997;DHT22;8103;51.340;12.326;2022-08-16T08:01:27;25.20;90.90
15997;DHT22;8103;51.340;12.326;2022-08-16T08:03:55;25.30;90.80
15997;DHT22;8103;51.340;12.326;2022-08-16T08:06:25;25.30;90.70
15997;DHT22;8103;51.340;12.326;2022-08-16T08:08:55;25.50;90.60
15997;DHT22;8103;51.340;12.326;2022-08-16T08:11:23;25.60;90.00
15997;DHT22;8103;51.340;12.326;2022-08-16T08:13:51;25.70;89.60
15997;DHT22;8103;51.340;12.326;2022-08-16T08:16:19;25.80;89.50
15997;DHT22;8103;51.340;12.326;2022-08-16T08:18:55;26.00;88.80
15997;DHT22;8103;51.340;12.326;2022-08-16T08:21:26;26.00;87.10
15997;DHT22;8103;51.340;12.326;2022-08-16T08:24:17;26.20;87.00
15997;DHT22;8103;51.340;12.326;2022-08-16T08:26:44;26.60;85.70
15997;DHT22;8103;51.340;12.326;2022-08-16T08:29:15;26.80;84.00
15997;DHT22;8103;51.340;12.326;2022-08-16T08:31:42;27.00;81.90
15997;DHT22;8103;51.340;12.326;2022-08-16T08:34:09;27.00;81.30
15997;DHT22;8103;51.340;12.326;2022-08-16T08:36:38;27.40;80.60
15997;DHT22;8103;51.340;12.326;2022-08-16T08:39:05;27.70;78.10
15997;DHT22;8103;51.340;12.326;2022-08-16T08:41:38;27.80;76.60
15997;DHT22;8103;51.340;12.326;2022-08-16T08:44:06;28.00;75.70
15997;DHT22;8103;51.340;12.326;2022-08-16T08:46:53;28.30;73.60
15997;DHT22;8103;51.340;12.326;2022-08-16T08:49:26;28.50;72.30
15997;DHT22;8103;51.340;12.326;2022-08-16T08:52:09;28.70;70.90
15997;DHT22;8103;51.340;12.326;2022-08-16T08:54:37;28.90;70.00
15997;DHT22;8103;51.340;12.326;2022-08-16T08:57:04;29.20;68.40
15997;DHT22;8103;51.340;12.326;2022-08-16T08:59:32;29.40;66.80
15997;DHT22;8103;51.340;12.326;2022-08-16T09:01:59;29.40;65.70
15997;DHT22;8103;51.340;12.326;2022-08-16T09:04:27;29.50;65.30
15997;DHT22;8103;51.340;12.326;2022-08-16T09:06:55;29.90;64.40
15997;DHT22;8103;51.340;12.326;2022-08-16T09:09:24;30.60;61.10
15997;DHT22;8103;51.340;12.326;2022-08-16T09:11:51;30.70;60.00
15997;DHT22;8103;51.340;12.326;2022-08-16T09:14:19;30.60;59.30
15997;DHT22;8103;51.340;12.326;2022-08-16T09:16:49;30.50;59.00
15997;DHT22;8103;51.340;12.326;2022-08-16T09:19:23;30.70;59.20
15997;DHT22;8103;51.340;12.326;2022-08-16T09:21:57;31.00;58.10
15997;DHT22;8103;51.340;12.326;2022-08-16T09:24:25;31.50;57.30
15997;DHT22;8103;51.340;12.326;2022-08-16T09:26:55;31.80;55.40
15997;DHT22;8103;51.340;12.326;2022-08-16T09:29:24;32.00;54.60
15997;DHT22;8103;51.340;12.326;2022-08-16T09:32:10;32.40;52.60
15997;DHT22;8103;51.340;12.326;2022-08-16T09:34:52;32.80;51.90
15997;DHT22;8103;51.340;12.326;2022-08-16T09:37:19;33.30;50.90
15997;DHT22;8103;51.340;12.326;2022-08-16T09:39:47;33.80;49.10
15997;DHT22;8103;51.340;12.326;2022-08-16T09:42:16;34.10;48.20
15997;DHT22;8103;51.340;12.326;2022-08-16T09:44:44;34.60;46.60
15997;DHT22;8103;51.340;12.326;2022-08-16T09:47:33;34.90;45.10
15997;DHT22;8103;51.340;12.326;2022-08-16T09:50:22;35.10;44.00
15997;DHT22;8103;51.340;12.326;2022-08-16T09:52:55;35.20;41.80
15997;DHT22;8103;51.340;12.326;2022-08-16T09:55:22;35.20;42.30
15997;DHT22;8103;51.340;12.326;2022-08-16T09:57:48;35.60;41.30
15997;DHT22;8103;51.340;12.326;2022-08-16T10:00:18;36.20;40.70
15997;DHT22;8103;51.340;12.326;2022-08-16T10:03:06;36.80;39.10
15997;DHT22;8103;51.340;12.326;2022-08-16T10:05:35;37.30;37.20
15997;DHT22;8103;51.340;12.326;2022-08-16T10:08:05;37.60;36.70
15997;DHT22;8103;51.340;12.326;2022-08-16T10:10:52;37.80;35.50
15997;DHT22;8103;51.340;12.326;2022-08-16T10:13:37;37.60;35.60
15997;DHT22;8103;51.340;12.326;2022-08-16T10:16:05;37.80;35.90
15997;DHT22;8103;51.340;12.326;2022-08-16T10:18:32;38.60;34.80
15997;DHT22;8103;51.340;12.326;2022-08-16T10:21:09;39.10;31.70
15997;DHT22;8103;51.340;12.326;2022-08-16T10:23:36;39.40;32.30
15997;DHT22;8103;51.340;12.326;2022-08-16T10:26:03;40.30;31.20
15997;DHT22;8103;51.340;12.326;2022-08-16T10:28:50;40.90;30.20
15997;DHT22;8103;51.340;12.326;2022-08-16T10:31:17;40.80;30.00
15997;DHT22;8103;51.340;12.326;2022-08-16T10:34:03;40.60;30.00
15997;DHT22;8103;51.340;12.326;2022-08-16T10:36:30;40.60;30.00
15997;DHT22;8103;51.340;12.326;2022-08-16T10:39:04;40.80;30.10
15997;DHT22;8103;51.340;12.326;2022-08-16T10:41:31;41.50;29.50
15997;DHT22;8103;51.340;12.326;2022-08-16T10:43:59;41.30;29.90
15997;DHT22;8103;51.340;12.326;2022-08-16T10:46:26;41.80;29.10
15997;DHT22;8103;51.340;12.326;2022-08-16T10:48:59;42.30;28.60
15997;DHT22;8103;51.340;12.326;2022-08-16T10:51:30;42.60;27.70
15997;DHT22;8103;51.340;12.326;2022-08-16T10:53:59;42.80;27.50
15997;DHT22;8103;51.340;12.326;2022-08-16T10:56:26;43.30;27.00
15997;DHT22;8103;51.340;12.326;2022-08-16T10:59:09;44.10;26.60
15997;DHT22;8103;51.340;12.326;2022-08-16T11:01:57;44.90;25.80
15997;DHT22;8103;51.340;12.326;2022-08-16T11:04:44;44.70;25.60
15997;DHT22;8103;51.340;12.326;2022-08-16T11:07:31;44.90;25.60
15997;DHT22;8103;51.340;12.326;2022-08-16T11:10:27;45.10;25.50
15997;DHT22;8103;51.340;12.326;2022-08-16T11:13:22;45.50;24.90
15997;DHT22;8103;51.340;12.326;2022-08-16T11:16:13;46.30;24.50
15997;DHT22;8103;51.340;12.326;2022-08-16T11:19:03;46.40;24.40
15997;DHT22;8103;51.340;12.326;2022-08-16T11:21:39;46.60;23.90
15997;DHT22;8103;51.340;12.326;2022-08-16T11:24:27;46.40;24.30
15997;DHT22;8103;51.340;12.326;2022-08-16T11:27:07;47.20;23.70
15997;DHT22;8103;51.340;12.326;2022-08-16T11:29:53;47.90;23.30
15997;DHT22;8103;51.340;12.326;2022-08-16T11:32:24;48.90;24.10
15997;DHT22;8103;51.340;12.326;2022-08-16T11:34:56;49.30;23.80
15997;DHT22;8103;51.340;12.326;2022-08-16T11:37:36;49.10;23.20
15997;DHT22;8103;51.340;12.326;2022-08-16T11:40:25;48.70;22.60
15997;DHT22;8103;51.340;12.326;2022-08-16T11:42:59;48.30;22.40
15997;DHT22;8103;51.340;12.326;2022-08-16T11:45:27;48.00;22.60
15997;DHT22;8103;51.340;12.326;2022-08-16T11:47:53;48.50;22.10
15997;DHT22;8103;51.340;12.326;2022-08-16T11:50:21;48.50;22.10
15997;DHT22;8103;51.340;12.326;2022-08-16T11:52:50;48.70;22.10
15997;DHT22;8103;51.340;12.326;2022-08-16T11:55:17;47.70;22.80
15997;DHT22;8103;51.340;12.326;2022-08-16T11:57:44;46.90;23.10
15997;DHT22;8103;51.340;12.326;2022-08-16T12:00:13;45.50;24.10
15997;DHT22;8103;51.340;12.326;2022-08-16T12:02:59;45.20;24.70
15997;DHT22;8103;51.340;12.326;2022-08-16T12:05:27;46.00;24.60
15997;DHT22;8103;51.340;12.326;2022-08-16T12:07:54;46.60;23.70
15997;DHT22;8103;51.340;12.326;2022-08-16T12:10:22;45.40;24.20
15997;DHT22;8103;51.340;12.326;2022-08-16T12:12:54;43.50;25.60
15997;DHT22;8103;51.340;12.326;2022-08-16T12:15:44;41.80;27.20
15997;DHT22;8103;51.340;12.326;2022-08-16T12:18:11;42.10;27.30
15997;DHT22;8103;51.340;12.326;2022-08-16T12:20:42;44.30;25.70
15997;DHT22;8103;51.340;12.326;2022-08-16T12:23:09;46.20;23.70
15997;DHT22;8103;51.340;12.326;2022-08-16T12:25:38;45.80;23.40
15997;DHT22;8103;51.340;12.326;2022-08-16T12:28:07;43.80;24.70
15997;DHT22;8103;51.340;12.326;2022-08-16T12:30:40;42.10;26.70
15997;DHT22;8103;51.340;12.326;2022-08-16T12:33:09;42.60;26.50
15997;DHT22;8103;51.340;12.326;2022-08-16T12:35:38;44.10;25.50
15997;DHT22;8103;51.340;12.326;2022-08-16T12:38:06;45.40;24.30
15997;DHT22;8103;51.340;12.326;2022-08-16T12:40:39;46.70;23.50
15997;DHT22;8103;51.340;12.326;2022-08-16T12:43:09;48.70;22.50
15997;DHT22;8103;51.340;12.326;2022-08-16T12:45:43;49.70;21.70
15997;DHT22;8103;51.340;12.326;2022-08-16T12:48:15;50.60;25.10
15997;DHT22;8103;51.340;12.326;2022-08-16T12:51:03;50.80;20.90
15997;DHT22;8103;51.340;12.326;2022-08-16T12:53:32;50.70;21.00
15997;DHT22;8103;51.340;12.326;2022-08-16T12:56:05;51.30;20.70
15997;DHT22;8103;51.340;12.326;2022-08-16T12:58:32;51.40;20.80
15997;DHT22;8103;51.340;12.326;2022-08-16T13:01:13;49.70;21.70
15997;DHT22;8103;51.340;12.326;2022-08-16T13:03:41;47.40;23.10
15997;DHT22;8103;51.340;12.326;2022-08-16T13:06:11;46.70;24.00
15997;DHT22;8103;51.340;12.326;2022-08-16T13:08:39;47.10;23.50
15997;DHT22;8103;51.340;12.326;2022-08-16T13:11:06;48.40;22.50
15997;DHT22;8103;51.340;12.326;2022-08-16T13:13:34;49.60;21.60
15997;DHT22;8103;51.340;12.326;2022-08-16T13:16:03;50.30;20.90
15997;DHT22;8103;51.340;12.326;2022-08-16T13:18:37;49.00;21.50
15997;DHT22;8103;51.340;12.326;2022-08-16T13:21:06;47.50;22.80
15997;DHT22;8103;51.340;12.326;2022-08-16T13:23:36;47.20;23.10
15997;DHT22;8103;51.340;12.326;2022-08-16T13:26:08;46.90;23.20
15997;DHT22;8103;51.340;12.326;2022-08-16T13:28:35;46.60;23.60
15997;DHT22;8103;51.340;12.326;2022-08-16T13:31:02;45.80;23.90
15997;DHT22;8103;51.340;12.326;2022-08-16T13:33:32;45.90;24.20
15997;DHT22;8103;51.340;12.326;2022-08-16T13:36:06;46.90;23.60
15997;DHT22;8103;51.340;12.326;2022-08-16T13:38:34;47.80;22.50
15997;DHT22;8103;51.340;12.326;2022-08-16T13:41:09;48.30;22.00
15997;DHT22;8103;51.340;12.326;2022-08-16T13:43:37;46.90;22.50
15997;DHT22;8103;51.340;12.326;2022-08-16T13:46:04;45.90;23.40
15997;DHT22;8103;51.340;12.326;2022-08-16T13:48:35;46.50;23.30
15997;DHT22;8103;51.340;12.326;2022-08-16T13:51:09;47.80;22.50
15997;DHT22;8103;51.340;12.326;2022-08-16T13:53:36;49.00;21.60
15997;DHT22;8103;51.340;12.326;2022-08-16T13:56:04;48.20;21.60
15997;DHT22;8103;51.340;12.326;2022-08-16T13:58:32;46.10;22.80
15997;DHT22;8103;51.340;12.326;2022-08-16T14:01:02;45.30;23.90
15997;DHT22;8103;51.340;12.326;2022-08-16T14:03:29;46.00;23.80
15997;DHT22;8103;51.340;12.326;2022-08-16T14:05:56;47.10;23.00
15997;DHT22;8103;51.340;12.326;2022-08-16T14:08:26;48.10;22.20
15997;DHT22;8103;51.340;12.326;2022-08-16T14:10:55;48.20;22.00
15997;DHT22;8103;51.340;12.326;2022-08-16T14:13:22;47.60;22.40
15997;DHT22;8103;51.340;12.326;2022-08-16T14:15:50;46.70;23.00
15997;DHT22;8103;51.340;12.326;2022-08-16T14:18:17;46.90;23.00
15997;DHT22;8103;51.340;12.326;2022-08-16T14:20:45;47.20;22.70
15997;DHT22;8103;51.340;12.326;2022-08-16T14:23:14;48.20;22.20
15997;DHT22;8103;51.340;12.326;2022-08-16T14:25:41;49.50;21.50
15997;DHT22;8103;51.340;12.326;2022-08-16T14:28:08;50.10;21.10
15997;DHT22;8103;51.340;12.326;2022-08-16T14:30:35;50.10;21.00
15997;DHT22;8103;51.340;12.326;2022-08-16T14:33:03;49.70;21.30
15997;DHT22;8103;51.340;12.326;2022-08-16T14:35:32;49.80;21.20
15997;DHT22;8103;51.340;12.326;2022-08-16T14:38:03;49.90;21.30
15997;DHT22;8103;51.340;12.326;2022-08-16T14:40:31;49.70;21.20
15997;DHT22;8103;51.340;12.326;2022-08-16T14:42:58;49.50;21.20
15997;DHT22;8103;51.340;12.326;2022-08-16T14:45:31;48.60;21.40
15997;DHT22;8103;51.340;12.326;2022-08-16T14:47:58;46.70;22.40
15997;DHT22;8103;51.340;12.326;2022-08-16T14:50:26;44.60;23.70
15997;DHT22;8103;51.340;12.326;2022-08-16T14:52:59;42.50;25.20
15997;DHT22;8103;51.340;12.326;2022-08-16T14:55:28;40.80;27.00
15997;DHT22;8103;51.340;12.326;2022-08-16T14:57:56;39.20;28.40
15997;DHT22;8103;51.340;12.326;2022-08-16T15:00:26;37.80;29.00
15997;DHT22;8103;51.340;12.326;2022-08-16T15:03:00;36.70;30.90
15997;DHT22;8103;51.340;12.326;2022-08-16T15:05:27;35.80;31.80
15997;DHT22;8103;51.340;12.326;2022-08-16T15:07:59;35.30;32.90
15997;DHT22;8103;51.340;12.326;2022-08-16T15:10:26;34.90;33.30
15997;DHT22;8103;51.340;12.326;2022-08-16T15:12:55;34.70;33.70
15997;DHT22;8103;51.340;12.326;2022-08-16T15:15:26;34.60;34.00
15997;DHT22;8103;51.340;12.326;2022-08-16T15:17:54;34.40;34.20
15997;DHT22;8103;51.340;12.326;2022-08-16T15:20:26;34.40;34.60
15997;DHT22;8103;51.340;12.326;2022-08-16T15:22:58;34.30;35.10
15997;DHT22;8103;51.340;12.326;2022-08-16T15:25:29;34.20;35.60
15997;DHT22;8103;51.340;12.326;2022-08-16T15:27:58;34.10;35.90
15997;DHT22;8103;51.340;12.326;2022-08-16T15:30:28;34.00;36.60
15997;DHT22;8103;51.340;12.326;2022-08-16T15:33:17;33.90;36.70
15997;DHT22;8103;51.340;12.326;2022-08-16T15:35:46;33.70;36.90
15997;DHT22;8103;51.340;12.326;2022-08-16T15:38:15;33.50;37.20
15997;DHT22;8103;51.340;12.326;2022-08-16T15:40:58;33.40;37.50
15997;DHT22;8103;51.340;12.326;2022-08-16T15:43:25;33.30;37.60
15997;DHT22;8103;51.340;12.326;2022-08-16T15:46:01;33.20;37.90
15997;DHT22;8103;51.340;12.326;2022-08-16T15:49:01;33.20;38.10
15997;DHT22;8103;51.340;12.326;2022-08-16T15:51:29;33.20;38.10
15997;DHT22;8103;51.340;12.326;2022-08-16T15:53:56;33.30;38.20
15997;DHT22;8103;51.340;12.326;2022-08-16T15:56:42;33.20;38.20
15997;DHT22;8103;51.340;12.326;2022-08-16T15:59:09;33.20;38.40
15997;DHT22;8103;51.340;12.326;2022-08-16T16:01:36;33.10;39.30